Time;durP1;ratioP1;P1;durP2;ratioP2;P2;SDS_P1;SDS_P2;PMS_P1;PMS_P2;Temp;Humidity;BMP_temperature;BMP_pressure;BME280_temperature;BME280_humidity;BME280_pressure;Samples;Min_cycle;Max_cycle;Signal;HPM_P1;HPM_P2
2023/03/08 00:01:03;;;;;;;7.45;3.17;;;3.20;99.90;;;2.92;100.00;99547.97;5103327;29;20056;-67
2023/03/08 00:03:36;;;;;;;8.45;3.67;;;3.20;99.90;;;2.87;100.00;99545.22;5088055;29;20048;-67
2023/03/08 00:06:13;;;;;;;6.45;2.70;;;3.20;99.90;;;2.86;100.00;99542.53;5086711;29;20532;-68
2023/03/08 00:08:47;;;;;;;7.28;2.85;;;3.20;99.90;;;2.86;100.00;99535.69;5088062;29;20068;-66
2023/03/08 00:11:19;;;;;;;10.00;3.20;;;3.20;99.90;;;2.87;100.00;99539.16;5086176;29;20058;-68
2023/03/08 00:13:51;;;;;;;7.07;2.85;;;3.20;99.90;;;2.83;100.00;99543.28;5087358;29;20054;-67
2023/03/08 00:16:24;;;;;;;8.77;2.95;;;3.20;99.90;;;2.85;100.00;99548.50;5095414;29;20044;-67
2023/03/08 00:18:56;;;;;;;7.90;3.08;;;3.20;99.90;;;2.82;100.00;99544.13;5096246;29;20475;-66
2023/03/08 00:21:31;;;;;;;6.97;3.22;;;3.20;99.90;;;2.83;100.00;99543.28;5087965;29;20040;-67
2023/03/08 00:24:04;;;;;;;7.07;3.30;;;3.20;99.90;;;2.86;100.00;99537.38;5096230;29;20115;-67
2023/03/08 00:26:36;;;;;;;9.30;3.28;;;3.20;99.90;;;2.84;100.00;99539.03;5093970;29;20048;-67
2023/03/08 00:29:08;;;;;;;6.45;2.67;;;3.20;99.90;;;2.84;100.00;99546.75;5089305;29;20044;-69
2023/03/08 00:31:41;;;;;;;7.15;3.05;;;3.20;99.90;;;2.82;100.00;99544.13;5084268;29;20048;-68
2023/03/08 00:34:13;;;;;;;5.45;2.53;;;3.20;99.90;;;2.83;100.00;99540.72;5085651;29;20052;-67
2023/03/08 00:36:47;;;;;;;6.30;2.80;;;3.10;99.90;;;2.83;100.00;99539.84;5094255;29;20495;-69
2023/03/08 00:39:22;;;;;;;7.15;3.50;;;3.10;99.90;;;2.82;100.00;99541.53;5087724;29;20040;-68
2023/03/08 00:41:54;;;;;;;6.07;2.38;;;3.10;99.90;;;2.84;100.00;99546.75;5103076;29;20040;-68
2023/03/08 00:44:28;;;;;;;6.30;2.67;;;3.10;99.90;;;2.83;100.00;99538.16;5086128;29;20060;-68
2023/03/08 00:47:00;;;;;;;7.82;3.13;;;3.10;99.90;;;2.84;100.00;99549.31;5087676;29;20055;-68
2023/03/08 00:49:32;;;;;;;6.75;2.90;;;3.10;99.90;;;2.82;100.00;99541.53;5091957;29;20040;-67
2023/03/08 00:52:07;;;;;;;6.28;2.70;;;3.20;99.90;;;2.84;100.00;99539.03;5096192;29;20090;-67
2023/03/08 00:54:42;;;;;;;7.45;2.50;;;3.20;99.90;;;2.84;100.00;99524.47;5076600;29;20059;-68
2023/03/08 00:57:15;;;;;;;7.35;3.15;;;3.20;99.90;;;2.84;100.00;99523.59;5109880;29;20390;-66
2023/03/08 00:59:48;;;;;;;5.90;2.42;;;3.10;99.90;;;2.85;100.00;99527.91;5119627;29;20040;-67
2023/03/08 01:02:20;;;;;;;5.53;2.55;;;3.10;99.90;;;2.87;100.00;99521.13;5085842;29;20115;-68
2023/03/08 01:04:53;;;;;;;5.22;2.50;;;3.20;99.90;;;2.86;100.00;99515.09;5085264;29;20052;-68
2023/03/08 01:07:28;;;;;;;6.50;2.60;;;3.20;99.90;;;2.86;100.00;99515.09;5085085;29;20103;-68
2023/03/08 01:10:02;;;;;;;5.35;2.13;;;3.20;99.90;;;2.86;100.00;99517.69;5085898;29;20494;-69
2023/03/08 01:12:36;;;;;;;7.05;2.65;;;3.20;99.90;;;2.85;100.00;99510.78;5094970;29;20542;-69
2023/03/08 01:15:09;;;;;;;6.85;2.42;;;3.20;99.90;;;2.82;100.00;99510.66;5087107;29;20048;-67
2023/03/08 01:17:42;;;;;;;7.30;2.65;;;3.10;99.90;;;2.81;100.00;99502.88;5077772;29;20046;-67
2023/03/08 01:20:14;;;;;;;8.05;3.10;;;3.10;99.90;;;2.77;100.00;99509.56;5102023;29;20039;-67
2023/03/08 01:22:48;;;;;;;8.13;3.40;;;3.10;99.90;;;2.76;100.00;99505.22;5101222;29;20119;-66
2023/03/08 01:25:20;;;;;;;8.27;3.20;;;3.10;99.90;;;2.73;100.00;99505.06;5095658;29;20044;-67
2023/03/08 01:27:52;;;;;;;7.55;3.30;;;3.10;99.90;;;2.73;100.00;99502.50;5102086;29;20043;-67
2023/03/08 01:30:24;;;;;;;9.05;3.35;;;3.10;99.90;;;2.70;100.00;99494.66;5098214;29;20063;-66
2023/03/08 01:32:56;;;;;;;8.27;3.63;;;3.10;99.90;;;2.71;100.00;99491.28;5098311;29;20405;-67
2023/03/08 01:35:31;;;;;;;8.35;3.50;;;3.10;99.90;;;2.69;100.00;99482.63;5121047;29;20039;-66
2023/03/08 01:38:04;;;;;;;8.23;3.17;;;3.00;99.90;;;2.67;100.00;99482.56;5114047;29;20051;-68
2023/03/08 01:40:36;;;;;;;8.32;3.28;;;3.00;99.90;;;2.67;100.00;99473.91;5084707;29;20044;-66
2023/03/08 01:43:25;;;;;;;8.07;3.42;;;3.00;99.90;;;2.69;100.00;99480.03;5102373;29;20123;-66
2023/03/08 01:46:22;;;;;;;8.07;3.53;;;3.00;99.90;;;2.68;100.00;99465.41;5110172;29;20039;-66
2023/03/08 01:49:07;;;;;;;6.55;2.88;;;3.00;99.90;;;2.69;100.00;99468.06;5085448;29;20056;-66
2023/03/08 01:51:43;;;;;;;8.43;3.05;;;3.00;99.90;;;2.65;100.00;99462.69;5100209;29;20051;-67
2023/03/08 01:54:24;;;;;;;9.18;3.38;;;3.00;99.90;;;2.62;100.00;99453.16;5099462;29;20083;-68
2023/03/08 01:57:02;;;;;;;7.15;2.53;;;3.00;99.90;;;2.61;100.00;99455.66;5080887;29;20266;-67
2023/03/08 01:59:35;;;;;;;12.32;4.10;;;3.00;99.90;;;2.56;100.00;99449.44;5088253;29;20040;-68
2023/03/08 02:02:07;;;;;;;7.97;3.03;;;2.90;99.90;;;2.56;100.00;99449.44;5087978;29;20058;-68
2023/03/08 02:04:41;;;;;;;8.27;3.20;;;2.90;99.90;;;2.52;100.00;99440.69;5094002;29;20071;-67
2023/03/08 02:07:16;;;;;;;8.98;3.45;;;2.90;99.90;;;2.51;100.00;99436.34;5104813;29;20054;-67
2023/03/08 02:09:51;;;;;;;7.72;3.17;;;2.90;99.90;;;2.50;100.00;99428.56;5102782;29;20109;-68
2023/03/08 02:12:26;;;;;;;9.32;3.47;;;2.80;99.90;;;2.50;100.00;99428.56;5108779;29;20039;-67
2023/03/08 02:14:59;;;;;;;8.50;3.10;;;2.90;99.90;;;2.49;100.00;99422.56;5096937;29;20044;-68
2023/03/08 02:17:38;;;;;;;9.68;3.47;;;2.90;99.90;;;2.50;100.00;99423.44;5087831;29;20043;-67
2023/03/08 02:20:17;;;;;;;7.65;2.95;;;2.90;99.90;;;2.52;100.00;99426.94;5096122;29;20127;-67
2023/03/08 02:22:53;;;;;;;10.20;3.55;;;2.90;99.90;;;2.52;100.00;99424.38;5087699;29;20394;-67
2023/03/08 02:25:27;;;;;;;9.48;3.60;;;2.90;99.90;;;2.52;100.00;99414.94;5104365;29;20130;-67
2023/03/08 02:28:00;;;;;;;11.00;3.95;;;2.90;99.90;;;2.54;100.00;99417.59;5087368;29;20052;-66
2023/03/08 02:30:36;;;;;;;9.05;3.75;;;2.90;99.90;;;2.54;100.00;99420.16;5105022;29;20040;-67
2023/03/08 02:33:26;;;;;;;9.85;4.15;;;2.90;99.90;;;2.54;100.00;99415.00;5102134;29;20497;-67
2023/03/08 02:35:58;;;;;;;10.13;3.97;;;2.90;99.90;;;2.56;100.00;99423.69;5099399;29;20484;-66
2023/03/08 02:38:36;;;;;;;11.43;4.03;;;2.90;99.90;;;2.57;100.00;99412.59;5104970;29;20035;-67
2023/03/08 02:41:08;;;;;;;10.70;3.78;;;2.90;99.90;;;2.57;100.00;99398.03;5105250;29;20139;-67
2023/03/08 02:43:49;;;;;;;15.00;5.47;;;2.90;99.90;;;2.57;100.00;99402.31;5112966;29;20044;-68
2023/03/08 02:46:21;;;;;;;11.73;4.55;;;2.90;99.90;;;2.57;100.00;99408.31;5100371;29;20047;-68
2023/03/08 02:48:54;;;;;;;10.00;3.92;;;2.90;99.90;;;2.56;100.00;99393.72;5105627;29;20054;-68
2023/03/08 02:51:27;;;;;;;12.05;4.35;;;2.90;99.90;;;2.56;100.00;99387.69;5088801;29;20039;-66
2023/03/08 02:54:00;;;;;;;12.05;4.45;;;2.90;99.90;;;2.56;100.00;99378.28;5080374;29;20421;-67
2023/03/08 02:56:33;;;;;;;11.65;4.38;;;2.90;99.90;;;2.57;100.00;99384.31;5087714;29;20048;-68
2023/03/08 02:59:05;;;;;;;12.18;4.57;;;2.90;99.90;;;2.54;100.00;99384.16;5105177;29;20126;-67
2023/03/08 03:01:38;;;;;;;11.38;4.38;;;2.90;99.90;;;2.54;100.00;99394.44;5109857;29;20044;-67
2023/03/08 03:04:12;;;;;;;9.70;3.75;;;2.90;99.90;;;2.56;100.00;99388.56;5103577;29;20054;-66
2023/03/08 03:06:45;;;;;;;13.40;4.78;;;2.90;99.90;;;2.55;100.00;99379.09;5103784;29;20067;-67
2023/03/08 03:09:20;;;;;;;11.13;4.35;;;2.90;99.90;;;2.55;100.00;99373.06;5110724;29;20247;-67
2023/03/08 03:11:52;;;;;;;11.48;4.10;;;2.90;99.90;;;2.52;100.00;99371.22;5102292;29;20082;-68
2023/03/08 03:14:27;;;;;;;9.45;3.65;;;2.90;99.90;;;2.52;100.00;99381.50;5103288;29;20560;-67
2023/03/08 03:17:00;;;;;;;11.25;4.55;;;2.90;99.90;;;2.53;100.00;99364.38;5086460;29;20398;-66
2023/03/08 03:19:32;;;;;;;10.02;4.15;;;2.90;99.90;;;2.50;100.00;99354.84;5089649;29;20590;-66
2023/03/08 03:22:05;;;;;;;8.95;3.42;;;2.80;99.90;;;2.50;100.00;99346.25;5108724;29;20047;-67
2023/03/08 03:24:38;;;;;;;11.73;3.97;;;2.80;99.90;;;2.44;100.00;99349.44;5086203;29;20040;-67
2023/03/08 03:27:12;;;;;;;9.57;3.80;;;2.80;99.90;;;2.41;100.00;99352.78;5102088;29;20054;-66
2023/03/08 03:29:45;;;;;;;8.70;3.53;;;2.80;99.90;;;2.34;100.00;99345.56;5110011;28;20497;-66
2023/03/08 03:32:22;;;;;;;9.15;3.63;;;2.70;99.90;;;2.31;100.00;99340.31;5082742;29;20556;-67
2023/03/08 03:34:54;;;;;;;7.78;2.92;;;2.70;99.90;;;2.31;100.00;99335.16;5086405;29;20116;-67
2023/03/08 03:37:27;;;;;;;7.65;3.03;;;2.70;99.90;;;2.26;100.00;99331.50;5098792;29;20454;-67
2023/03/08 03:40:01;;;;;;;6.38;2.95;;;2.70;99.90;;;2.23;100.00;99325.38;5107268;29;20308;-66
2023/03/08 03:42:35;;;;;;;9.82;3.33;;;2.60;99.90;;;2.18;100.00;99338.00;5098400;29;20044;-67
2023/03/08 03:45:17;;;;;;;7.57;2.80;;;2.60;99.90;;;2.20;100.00;99331.22;5082339;29;20530;-66
2023/03/08 03:47:50;;;;;;;8.00;3.08;;;2.60;99.90;;;2.22;100.00;99321.91;5086499;29;20048;-66
2023/03/08 03:50:22;;;;;;;7.22;2.45;;;2.60;99.90;;;2.25;100.00;99328.88;5087710;29;20040;-66
2023/03/08 03:53:00;;;;;;;9.25;3.00;;;2.60;99.90;;;2.21;100.00;99325.28;5082805;29;20323;-67
2023/03/08 03:55:35;;;;;;;8.18;3.15;;;2.60;99.90;;;2.23;100.00;99331.38;5081958;29;20049;-67
2023/03/08 03:58:08;;;;;;;8.15;3.22;;;2.60;99.90;;;2.25;100.00;99319.47;5116911;29;20438;-66
2023/03/08 04:00:41;;;;;;;11.18;3.95;;;2.60;99.90;;;2.28;100.00;99322.19;5101357;29;20112;-66
2023/03/08 04:03:24;;;;;;;10.60;3.80;;;2.70;99.90;;;2.29;100.00;99321.38;5097517;29;20416;-67
2023/03/08 04:06:07;;;;;;;9.05;3.30;;;2.70;99.90;;;2.30;100.00;99322.25;5113547;29;20039;-66
2023/03/08 04:08:42;;;;;;;8.00;2.95;;;2.70;99.90;;;2.30;100.00;99310.25;5102062;29;20040;-66
2023/03/08 04:11:24;;;;;;;9.13;3.55;;;2.70;99.90;;;2.27;100.00;99302.41;5086028;29;20577;-68
2023/03/08 04:13:57;;;;;;;10.55;3.83;;;2.70;99.90;;;2.24;100.00;99299.72;5086187;29;20502;-67
2023/03/08 04:16:33;;;;;;;10.63;4.53;;;2.70;99.90;;;2.22;100.00;99297.88;5091063;29;20063;-67
2023/03/08 04:19:13;;;;;;;7.72;3.60;;;2.60;99.90;;;2.20;100.00;99291.78;5108920;29;20064;-67
2023/03/08 04:21:52;;;;;;;12.68;4.72;;;2.60;99.90;;;2.15;100.00;99291.56;5110818;29;20032;-67
2023/03/08 04:24:30;;;;;;;10.45;4.07;;;2.60;99.90;;;2.14;100.00;99292.41;5078368;29;20047;-67
2023/03/08 04:27:08;;;;;;;11.23;6.75;;;2.60;99.90;;;2.14;100.00;99285.56;5101457;29;20036;-66
2023/03/08 04:29:41;;;;;;;10.43;5.50;;;2.60;99.90;;;2.16;100.00;99277.94;5072355;29;20044;-66
2023/03/08 04:32:13;;;;;;;8.65;4.40;;;2.60;99.90;;;2.17;100.00;99284.84;5085773;29;20043;-67
2023/03/08 04:34:54;;;;;;;9.05;3.85;;;2.60;99.90;;;2.19;100.00;99272.91;5078090;29;20052;-68
2023/03/08 04:37:30;;;;;;;6.05;3.13;;;2.60;99.90;;;2.18;100.00;99266.91;5090162;29;20044;-66
2023/03/08 04:40:11;;;;;;;7.93;3.47;;;2.60;99.90;;;2.19;100.00;99267.78;5092613;29;20046;-67
2023/03/08 04:42:52;;;;;;;8.52;3.30;;;2.60;99.90;;;2.15;100.00;99265.88;5088111;29;20048;-68
2023/03/08 04:45:31;;;;;;;7.45;3.05;;;2.60;99.90;;;2.11;100.00;99248.56;5098380;29;20039;-67
2023/03/08 04:48:07;;;;;;;7.18;3.17;;;2.50;99.90;;;2.10;100.00;99245.13;5098873;29;20044;-68
2023/03/08 04:50:39;;;;;;;9.35;3.30;;;2.50;99.90;;;2.09;100.00;99242.50;5083349;29;20040;-67
2023/03/08 04:53:14;;;;;;;7.60;2.95;;;2.50;99.90;;;2.04;100.00;99236.28;5079588;29;20059;-66
2023/03/08 04:55:46;;;;;;;6.78;3.00;;;2.50;99.90;;;2.06;100.00;99226.94;5098158;29;20230;-67
2023/03/08 04:58:21;;;;;;;8.90;3.90;;;2.50;99.90;;;2.09;100.00;99219.38;5088338;29;20453;-67
2023/03/08 05:00:53;;;;;;;10.40;3.35;;;2.50;99.90;;;2.05;100.00;99217.47;5096424;29;20035;-67
2023/03/08 05:03:26;;;;;;;7.55;2.83;;;2.50;99.90;;;2.00;100.00;99211.25;5105103;29;20420;-66
2023/03/08 05:05:59;;;;;;;8.55;2.78;;;2.50;99.90;;;2.01;100.00;99202.72;5085135;29;20047;-67
2023/03/08 05:08:31;;;;;;;7.07;2.70;;;2.50;99.90;;;2.01;100.00;99200.13;5088777;29;20294;-68
2023/03/08 05:11:05;;;;;;;6.65;2.60;;;2.40;99.90;;;2.02;100.00;99197.66;5098384;29;20040;-67
2023/03/08 05:13:41;;;;;;;7.13;3.60;;;2.40;99.90;;;2.05;100.00;99204.63;5088591;29;20071;-66
2023/03/08 05:16:15;;;;;;;7.45;4.00;;;2.50;99.90;;;2.02;100.00;99196.75;5084648;29;20058;-66
2023/03/08 05:18:47;;;;;;;10.02;3.42;;;2.50;99.90;;;2.00;100.00;99196.69;5088638;29;20051;-71
2023/03/08 05:21:23;;;;;;;7.35;3.25;;;2.40;99.90;;;1.99;100.00;99201.78;5069856;29;20071;-68
2023/03/08 05:24:01;;;;;;;9.52;4.03;;;2.50;99.90;;;1.94;100.00;99187.84;5084306;29;20044;-68
2023/03/08 05:26:37;;;;;;;7.15;2.85;;;2.40;99.90;;;1.86;100.00;99172.97;5088267;29;20056;-68
2023/03/08 05:29:11;;;;;;;9.23;3.30;;;2.40;99.90;;;1.85;100.00;99168.66;5077067;29;20059;-70
2023/03/08 05:31:44;;;;;;;8.48;3.00;;;2.30;99.90;;;1.78;100.00;99158.06;5084461;29;20565;-69
2023/03/08 05:34:17;;;;;;;8.75;3.42;;;2.30;99.90;;;1.77;100.00;99156.31;5085141;29;20079;-68
2023/03/08 05:36:52;;;;;;;;;;;2.30;99.90;;;1.80;100.00;99149.59;5084500;29;20044;-67
2023/03/08 05:39:24;;;;;;;7.10;2.70;;;2.30;99.90;;;1.82;100.00;99145.38;5084395;29;19923;-68
2023/03/08 05:42:05;;;;;;;10.88;3.40;;;2.30;99.90;;;1.68;100.00;99133.63;5084198;29;20099;-68
2023/03/08 05:44:45;;;;;;;8.68;3.40;;;2.20;99.90;;;1.70;100.00;99131.16;5094260;29;20039;-68
2023/03/08 05:47:20;;;;;;;8.85;3.42;;;2.20;99.90;;;1.70;100.00;99124.34;5087651;29;20482;-69
2023/03/08 05:49:52;;;;;;;7.90;3.38;;;2.20;99.90;;;1.74;100.00;99117.63;5084182;29;20430;-69
2023/03/08 05:52:25;;;;;;;10.25;3.63;;;2.20;99.90;;;1.75;100.00;99120.25;5084013;29;20107;-69
2023/03/08 05:54:59;;;;;;;10.13;3.90;;;2.20;99.90;;;1.78;100.00;99115.25;5082857;29;20079;-68
2023/03/08 05:57:31;;;;;;;11.32;4.18;;;2.30;99.90;;;1.77;100.00;99112.63;5085958;29;20299;-71
2023/03/08 06:00:08;;;;;;;9.90;3.75;;;2.30;99.90;;;1.78;100.00;99096.41;5083539;29;20052;-69
2023/03/08 06:02:47;;;;;;;8.85;3.70;;;2.20;99.90;;;1.82;100.00;99091.44;5085734;29;20082;-67
2023/03/08 06:05:20;;;;;;;11.85;3.97;;;2.30;99.90;;;1.84;100.00;99084.69;5083852;29;20052;-68
2023/03/08 06:07:53;;;;;;;10.40;3.67;;;2.30;99.90;;;1.85;100.00;99075.28;5083679;29;20044;-67
2023/03/08 06:10:26;;;;;;;10.52;3.85;;;2.30;99.90;;;1.81;100.00;99069.13;5087430;29;20075;-67
2023/03/08 06:12:59;;;;;;;9.23;3.70;;;2.30;99.90;;;1.77;100.00;99056.13;5071400;29;20593;-70
2023/03/08 06:15:33;;;;;;;9.77;3.50;;;2.30;99.90;;;1.73;100.00;99057.66;5085298;29;20406;-69
2023/03/08 06:18:06;;;;;;;8.38;3.42;;;2.20;99.90;;;1.72;100.00;99057.59;5083331;29;20155;-66
2023/03/08 06:20:38;;;;;;;6.72;2.65;;;2.20;99.90;;;1.71;100.00;99046.44;5086935;29;20048;-68
2023/03/08 06:23:11;;;;;;;8.10;3.25;;;2.20;99.90;;;1.67;100.00;99033.41;5069310;29;20510;-69
2023/03/08 06:25:44;;;;;;;10.07;3.83;;;2.20;99.90;;;1.66;100.00;99022.25;5083040;29;20044;-69
2023/03/08 06:28:18;;;;;;;8.75;3.65;;;2.20;99.90;;;1.63;100.00;99017.00;5083715;29;20058;-70
2023/03/08 06:30:52;;;;;;;8.30;3.53;;;2.20;99.90;;;1.63;100.00;98999.03;5083398;29;20123;-69
2023/03/08 06:33:27;;;;;;;7.15;2.95;;;2.20;99.90;;;1.60;100.00;98991.19;5067499;29;20589;-69
2023/03/08 06:36:02;;;;;;;7.07;3.22;;;2.10;99.90;;;1.65;100.00;99001.66;5086545;29;20047;-69
2023/03/08 06:38:38;;;;;;;7.25;3.03;;;2.20;99.90;;;1.65;100.00;98999.09;5083215;29;20383;-68
2023/03/08 06:41:12;;;;;;;5.93;2.75;;;2.20;99.90;;;1.59;100.00;98992.00;5083168;29;20143;-69
2023/03/08 06:43:45;;;;;;;;;;;2.20;99.90;;;1.60;100.00;98980.91;5084566;29;20040;-68
2023/03/08 06:46:19;;;;;;;7.32;3.80;;;2.20;99.90;;;1.60;100.00;98979.22;5082603;29;19927;-69
2023/03/08 06:48:53;;;;;;;7.88;3.90;;;2.20;99.90;;;1.59;100.00;98974.03;5067485;29;20139;-70
2023/03/08 06:51:26;;;;;;;7.10;2.60;;;2.10;99.90;;;1.59;100.00;98958.63;5082856;29;20044;-69
2023/03/08 06:53:59;;;;;;;6.63;2.65;;;2.10;99.90;;;1.57;100.00;98950.84;5082678;29;20044;-69
2023/03/08 06:56:33;;;;;;;8.63;3.00;;;2.10;99.90;;;1.55;100.00;98949.03;5082748;29;20052;-71
2023/03/08 06:59:05;;;;;;;6.20;3.00;;;2.10;99.90;;;1.58;100.00;98944.91;5082997;29;20078;-69
2023/03/08 07:01:40;;;;;;;7.82;3.10;;;2.10;99.90;;;1.59;100.00;98932.94;5086583;29;20036;-69
2023/03/08 07:04:12;;;;;;;7.55;3.33;;;2.10;99.90;;;1.59;100.00;98927.81;5076814;29;20058;-55
2023/03/08 07:06:44;;;;;;;8.52;3.72;;;2.10;99.90;;;1.63;100.00;98939.97;5084017;29;20048;-55
2023/03/08 07:09:16;;;;;;;8.38;3.38;;;2.10;99.90;;;1.60;100.00;98930.44;5067069;29;20067;-56
2023/03/08 07:11:48;;;;;;;9.60;3.63;;;2.10;99.90;;;1.59;100.00;98926.09;5083987;29;20044;-55
2023/03/08 07:14:20;;;;;;;8.63;3.35;;;2.20;99.90;;;1.62;100.00;98922.78;5082762;29;20529;-56
2023/03/08 07:16:54;;;;;;;10.60;3.60;;;2.20;99.90;;;1.58;100.00;98920.91;5082813;29;20056;-55
2023/03/08 07:19:26;;;;;;;9.43;3.53;;;2.10;99.90;;;1.60;100.00;98914.13;5083948;29;20044;-56
2023/03/08 07:21:58;;;;;;;9.40;3.55;;;2.20;99.90;;;1.65;100.00;98912.63;5082263;29;20494;-54
2023/03/08 07:24:30;;;;;;;9.00;4.00;;;2.20;99.90;;;1.69;100.00;98914.50;5083415;29;20518;-56
2023/03/08 07:27:02;;;;;;;10.50;3.83;;;2.20;99.90;;;1.72;100.00;98909.50;5082896;29;20044;-56
2023/03/08 07:29:34;;;;;;;10.52;4.03;;;2.30;99.90;;;1.76;100.00;98908.81;5083023;29;20146;-56
2023/03/08 07:32:08;;;;;;;9.85;4.03;;;2.30;99.90;;;1.78;100.00;98894.31;5083760;29;20052;-55
2023/03/08 07:34:40;;;;;;;9.38;4.25;;;2.30;99.90;;;1.83;100.00;98895.38;5083759;29;20528;-56
2023/03/08 07:37:13;;;;;;;10.65;4.35;;;2.40;99.90;;;1.84;100.00;98894.56;5084018;29;20076;-57
2023/03/08 07:39:45;;;;;;;10.75;4.43;;;2.40;99.90;;;1.86;100.00;98898.06;5082719;29;20417;-56
2023/03/08 07:42:17;;;;;;;11.88;4.25;;;2.40;99.90;;;1.85;100.00;98890.31;5082659;29;20074;-55
2023/03/08 07:44:55;;;;;;;11.75;4.38;;;2.40;99.90;;;1.89;100.00;98893.06;5066127;29;20051;-57
2023/03/08 07:47:29;;;;;;;10.32;4.45;;;2.40;99.90;;;1.87;100.00;98892.09;5083935;29;20071;-56
2023/03/08 07:50:01;;;;;;;9.15;4.70;;;2.40;99.90;;;1.82;100.00;98885.91;5083690;29;20048;-58
2023/03/08 07:52:33;;;;;;;10.00;4.25;;;2.40;99.90;;;1.85;100.00;98886.03;5083841;29;20075;-56
2023/03/08 07:55:07;;;;;;;10.43;4.60;;;2.40;99.90;;;1.87;100.00;98889.53;5083749;29;20124;-55
2023/03/08 07:57:39;;;;;;;9.50;4.30;;;2.40;99.90;;;1.91;100.00;98885.41;5084281;29;20040;-56
2023/03/08 08:00:13;;;;;;;9.77;4.30;;;2.40;99.90;;;1.94;100.00;98884.63;5083882;29;20516;-54
2023/03/08 08:02:46;;;;;;;10.43;4.70;;;2.50;99.90;;;1.97;100.00;98879.63;5083353;29;20044;-56
2023/03/08 08:05:20;;;;;;;9.73;4.13;;;2.50;99.90;;;1.97;100.00;98877.94;5085237;29;20040;-56
2023/03/08 08:07:52;;;;;;;10.80;4.60;;;2.50;99.90;;;2.01;100.00;98886.63;5083488;29;20510;-57
2023/03/08 08:10:24;;;;;;;12.38;4.30;;;2.50;99.90;;;2.03;100.00;98882.44;5085174;29;20445;-54
2023/03/08 08:12:56;;;;;;;9.65;4.35;;;2.50;99.90;;;1.98;100.00;98876.25;5084854;29;20068;-54
2023/03/08 08:15:29;;;;;;;10.70;4.22;;;2.50;99.90;;;2.08;100.00;98876.63;5084808;29;20048;-52
2023/03/08 08:18:03;;;;;;;8.68;3.95;;;2.60;99.90;;;2.09;100.00;98862.97;5085793;29;20048;-51
2023/03/08 08:20:35;;;;;;;10.68;4.32;;;2.60;99.90;;;2.09;100.00;98865.56;5087608;29;20096;-51
2023/03/08 08:23:07;;;;;;;12.00;4.82;;;2.60;99.90;;;2.07;100.00;98859.47;5087226;29;20040;-51
2023/03/08 08:25:40;;;;;;;10.07;4.25;;;2.60;99.90;;;2.06;100.00;98849.13;5087186;29;20056;-54
2023/03/08 08:28:12;;;;;;;10.95;4.22;;;2.60;99.90;;;2.06;100.00;98849.13;5087507;29;20044;-53
2023/03/08 08:30:44;;;;;;;10.60;4.40;;;2.60;99.90;;;2.11;100.00;98847.59;5087462;29;20100;-51
2023/03/08 08:33:17;;;;;;;10.75;5.07;;;2.60;99.90;;;2.13;100.00;98833.97;5087346;29;20047;-52
2023/03/08 08:35:49;;;;;;;10.90;4.97;;;2.60;99.90;;;2.16;100.00;98838.38;5085905;29;20056;-52
2023/03/08 08:38:21;;;;;;;10.32;4.63;;;2.60;99.90;;;2.76;100.00;98823.38;5086991;29;20048;-51
2023/03/08 08:40:53;;;;;;;8.93;4.68;;;3.20;99.90;;;2.76;100.00;98815.66;5086830;29;20052;-50
2023/03/08 08:43:26;;;;;;;11.65;5.07;;;3.30;99.90;;;2.63;100.00;98821.19;5086846;29;20044;-51
2023/03/08 08:45:59;;;;;;;9.55;4.65;;;3.20;99.90;;;2.49;100.00;98823.28;5087117;29;20051;-52
2023/03/08 08:48:33;;;;;;;13.88;5.63;;;3.10;99.90;;;2.48;100.00;98823.22;5085382;29;20044;-50
2023/03/08 08:51:07;;;;;;;10.95;4.80;;;3.00;99.90;;;2.47;100.00;98812.06;5086725;29;20058;-50
2023/03/08 08:53:39;;;;;;;11.65;4.70;;;3.00;99.90;;;2.40;100.00;98805.81;5070186;29;20581;-53
2023/03/08 08:56:13;;;;;;;11.18;5.65;;;2.90;99.90;;;2.44;100.00;98807.69;5086731;29;20048;-52
2023/03/08 08:58:47;;;;;;;11.90;5.25;;;3.00;99.90;;;2.42;100.00;98803.31;5086785;29;20478;-49
2023/03/08 09:01:22;;;;;;;11.85;5.00;;;2.90;99.90;;;2.40;100.00;98805.81;5086731;29;20044;-52
2023/03/08 09:03:56;;;;;;;11.65;4.88;;;2.90;99.90;;;2.30;100.00;98803.75;5086423;29;20055;-50
2023/03/08 09:06:29;;;;;;;12.27;5.50;;;2.90;99.90;;;2.24;100.00;98800.09;5086621;29;20615;-53
2023/03/08 09:09:02;;;;;;;14.25;5.53;;;2.80;99.90;;;2.22;100.00;98794.91;5086216;29;20056;-52
2023/03/08 09:11:35;;;;;;;13.10;5.65;;;2.80;99.90;;;2.25;100.00;98795.00;5086305;29;20049;-52
2023/03/08 09:14:07;;;;;;;9.85;4.50;;;2.80;99.90;;;2.32;100.00;98796.97;5086226;29;20059;-53
2023/03/08 09:16:39;;;;;;;12.25;5.15;;;2.80;99.90;;;2.31;100.00;98789.22;5086099;29;20072;-51
2023/03/08 09:19:12;;;;;;;13.32;4.68;;;2.80;99.90;;;2.34;100.00;98785.03;5086588;29;20063;-51
2023/03/08 09:21:44;;;;;;;15.40;6.35;;;2.80;99.90;;;2.39;100.00;98791.22;5086580;29;20454;-53
2023/03/08 09:24:16;;;;;;;11.88;5.70;;;2.90;99.90;;;2.41;100.00;98786.13;5086054;29;20506;-51
2023/03/08 09:26:49;;;;;;;13.63;5.47;;;2.90;99.90;;;2.42;100.00;98778.47;5086659;29;20533;-50
2023/03/08 09:29:21;;;;;;;11.80;5.40;;;2.90;99.90;;;2.49;100.00;98773.56;5086205;29;20534;-51
2023/03/08 09:31:53;;;;;;;13.75;5.88;;;3.00;99.90;;;2.52;100.00;98771.06;5086100;29;20048;-53
2023/03/08 09:34:26;;;;;;;13.98;6.10;;;3.00;99.90;;;2.45;100.00;98767.41;5085901;29;20087;-51
2023/03/08 09:36:59;;;;;;;15.18;6.70;;;3.00;99.90;;;2.44;100.00;98760.53;5085566;29;20052;-55
2023/03/08 09:39:31;;;;;;;14.60;6.15;;;3.00;99.90;;;2.43;100.00;98758.78;5085935;29;20052;-52
2023/03/08 09:42:04;;;;;;;14.70;6.97;;;2.90;99.90;;;2.50;100.00;98759.88;5085771;29;20044;-52
2023/03/08 09:45:04;;;;;;;13.70;5.88;;;3.00;99.90;;;2.53;100.00;98759.97;5085626;29;20449;-53
2023/03/08 09:47:46;;;;;;;12.38;5.78;;;3.00;99.90;;;2.57;100.00;98761.81;5085836;29;20048;-52
2023/03/08 09:50:43;;;;;;;14.55;6.07;;;3.00;99.90;;;3.06;100.00;98747.97;5084306;29;20044;-53
2023/03/08 09:53:23;;;;;;;17.50;6.28;;;3.50;99.90;;;2.97;100.00;98754.59;5085706;29;20130;-51
2023/03/08 09:56:02;;;;;;;12.93;5.63;;;3.50;99.90;;;2.78;100.00;98744.53;5085791;29;20052;-50
2023/03/08 09:58:41;;;;;;;13.15;5.95;;;3.40;99.90;;;2.71;100.00;98732.28;5085728;29;20060;-51
2023/03/08 10:01:28;;;;;;;14.25;6.03;;;3.30;99.90;;;2.61;100.00;98738.84;5068484;29;20409;-52
2023/03/08 10:04:24;;;;;;;11.70;5.35;;;3.20;99.90;;;2.62;100.00;98734.56;5085473;29;20082;-50
2023/03/08 10:07:25;;;;;;;14.27;6.00;;;3.10;99.90;;;2.69;100.00;98723.66;5085357;29;20044;-50
2023/03/08 10:10:15;;;;;;;15.07;6.43;;;3.20;99.90;;;2.74;100.00;98734.97;5085362;29;20059;-53
2023/03/08 10:13:02;;;;;;;13.48;6.30;;;3.20;99.90;;;2.84;100.00;98736.13;5083848;29;20048;-50
2023/03/08 10:15:42;;;;;;;12.77;5.97;;;3.30;99.90;;;2.94;100.00;98746.78;5085406;29;20052;-51
2023/03/08 10:18:26;;;;;;;13.85;5.72;;;3.30;99.90;;;2.97;100.00;98738.28;5083970;29;20059;-52
2023/03/08 10:21:01;;;;;;;14.27;5.85;;;3.40;99.90;;;2.98;100.00;98738.31;5085148;29;20079;-52
2023/03/08 10:23:36;;;;;;;12.75;5.55;;;3.40;99.90;;;3.03;100.00;98738.47;5084931;29;20047;-49
2023/03/08 10:26:12;;;;;;;14.63;6.57;;;3.40;99.90;;;3.02;100.00;98735.88;5085188;29;20055;-52
2023/03/08 10:28:44;;;;;;;12.40;5.82;;;3.40;99.90;;;2.98;100.00;98730.59;5084891;29;20108;-52
2023/03/08 10:31:24;;;;;;;14.07;5.75;;;3.40;99.90;;;3.00;100.00;98720.38;5085232;29;20051;-51
2023/03/08 10:34:04;;;;;;;13.02;5.93;;;3.40;99.90;;;2.98;100.00;98715.16;5085129;29;20410;-52
2023/03/08 10:36:49;;;;;;;21.00;9.43;;;3.40;99.90;;;2.96;100.00;98714.25;5137548;23;20526;-86
2023/03/08 10:39:22;;;;;;;16.00;7.15;;;3.40;99.90;;;3.06;100.00;98717.09;5147851;28;20050;-87
2023/03/08 10:41:58;;;;;;;13.48;6.63;;;3.50;99.90;;;3.08;100.00;98715.47;5140332;28;20055;-84
2023/03/08 10:44:35;;;;;;;12.95;6.25;;;3.50;99.90;;;3.08;100.00;98718.03;5137304;28;20475;-86
2023/03/08 10:47:24;;;;;;;12.43;5.90;;;3.50;99.90;;;3.16;100.00;98721.72;5147076;28;20046;-84
2023/03/08 10:50:06;;;;;;;13.40;6.85;;;3.60;99.90;;;3.23;100.00;98721.94;5129607;28;20493;-84
2023/03/08 10:52:39;;;;;;;16.33;7.93;;;3.60;99.90;;;3.31;100.00;98724.75;5130264;28;20617;-86
2023/03/08 10:55:15;;;;;;;14.98;7.47;;;3.70;99.90;;;3.32;100.00;98721.34;5129339;28;20129;-85